Flight Track Log - Related Links

Times and Time Zones

All times are in EST time to prevent confusion due to time zone crossing. See the RPA6248 flight status page for this flight to view local times or setup timezone preferences in your user account.

Time Position Orientation Groundspeed Altitude Reporting Facility
EST Latitude Longitude Course Direction KTS MPH feet Rate Location/Type
Fri 02:48:17 PM 29.5558 -98.4358 15° North 161 185 3,100  Level Houston Center
Fri 02:49:28 PM 29.6292 -98.4125 15° North 281 323 6,000 3,113 Climbing Houston Center
Fri 02:50:30 PM 29.7119 -98.4078 North 293 337 10,000 3,463 Climbing Houston Center
Fri 02:51:31 PM 29.8039 -98.4044 North 309 356 13,100 2,400 Climbing Houston Center
Fri 02:52:35 PM 29.8961 -98.4014 North 328 377 15,000 1,403 Climbing Houston Center
Fri 02:53:35 PM 29.9903 -98.3969 North 338 389 16,000 1,854 Climbing Houston Center
Fri 02:54:38 PM 30.0956 -98.3928 North 350 403 18,800 2,640 Climbing Houston Center
Fri 02:55:40 PM 30.1992 -98.3800 North 371 427 21,500 1,728 Climbing Houston Center
Fri 02:56:43 PM 30.3136 -98.3614 North 408 470 22,400 1,113 Climbing Houston Center
Fri 02:57:44 PM 30.4392 -98.3444 North 441 507 23,800 1,463 Climbing Houston Center
Fri 02:58:46 PM 30.5675 -98.3244 North 454 522 25,400 1,056 Climbing Houston Center
Fri 02:59:49 PM 30.6983 -98.3050 North 464 534 26,000 286 Climbing Houston Center
Fri 03:00:52 PM 30.8292 -98.2867 North 466 536 26,000  Level Houston Center
Fri 03:01:53 PM 30.9592 -98.2667 North 466 536 26,000 -98 Level Houston Center
Fri 03:02:54 PM 31.1119 -98.2439 North 467 537 25,800 -440 Descending Houston Center
Fri 03:03:42 PM 31.1978 -98.2256 10° North 470 541 25,200 -873 Descending Fort Worth Center
Fri 03:04:44 PM 31.3242 -98.1808 17° North 468 539 24,200 -581 Descending Fort Worth Center
Fri 03:05:46 PM 31.4689 -98.1292 17° North 460 529 24,000 -97 Descending Fort Worth Center
Fri 03:06:48 PM 31.5872 -98.0744 21° North 453 521 24,000  Level Fort Worth Center
Fri 03:07:50 PM 31.7050 -98.0108 25° Northeast 458 527 24,000  Level Fort Worth Center
Fri 03:08:52 PM 31.8242 -97.9469 24° Northeast 461 531 24,000 -672 Level Fort Worth Center
Fri 03:09:55 PM 31.9400 -97.8822 25° Northeast 457 526 22,600 -1,920 Descending Fort Worth Center
Fri 03:10:57 PM 32.0669 -97.8144 24° Northeast 437 503 20,000 -2,371 Descending Fort Worth Center
Fri 03:11:59 PM 32.1736 -97.7561 25° Northeast 421 484 17,700 -2,129 Descending Fort Worth Center
Fri 03:13:01 PM 32.2758 -97.7003 25° Northeast 375 432 15,600 -1,935 Descending Fort Worth Center
Fri 03:14:03 PM 32.3617 -97.6414 30° Northeast 358 412 13,700 -1,839 Descending Fort Worth Center
Fri 03:15:05 PM 32.4300 -97.5564 46° Northeast 356 410 11,800 -1,306 Descending Fort Worth Center
Fri 03:16:07 PM 32.5014 -97.4700 46° Northeast 341 392 11,000 -387 Descending Fort Worth Center
Fri 03:17:09 PM 32.5683 -97.3900 45° Northeast 341 392 11,000  Level Fort Worth Center
Fri 03:18:11 PM 32.6406 -97.3031 45° Northeast 342 394 11,000  Level Fort Worth Center
Fri 03:19:13 PM 32.7033 -97.2272 45° Northeast 320 368 11,000 -96 Level Fort Worth Center
Fri 03:20:16 PM 32.7642 -97.1711 38° Northeast 264 304 10,800 -720 Descending Fort Worth Center
Fri 03:21:18 PM 32.8322 -97.1683 North 246 283 9,500 -1,240 Descending Fort Worth Center
Fri 03:22:17 PM 32.9000 -97.1667 North 242 278 8,300 -1,462 Descending Dallas / Fort Worth TRACON
Fri 03:23:17 PM 32.9667 -97.1500 12° North 236 272 6,600 -1,750 Descending Dallas / Fort Worth TRACON
Fri 03:24:17 PM 33.0333 -97.1333 12° North 229 264 4,800 -1,537 Descending Dallas / Fort Worth TRACON
Fri 03:25:18 PM 33.0667 -97.0833 51° Northeast 182 209 3,500 -950 Descending Dallas / Fort Worth TRACON
Fri 03:26:17 PM 33.0167 -97.0500 151° Southeast 176 203 2,900 -750 Descending Dallas / Fort Worth TRACON
Fri 03:27:18 PM 32.9833 -97.0500 180° South 144 166 2,000 -850 Descending Dallas / Fort Worth TRACON
Fri 03:28:17 PM 32.9500 -97.0500 180° South 95 109 1,200 -814 Descending Dallas / Fort Worth TRACON

Login

Don't have an account? Register now (free) for customized features, flight alerts, and more!